Time;durP1;ratioP1;P1;durP2;ratioP2;P2;SDS_P1;SDS_P2;PMS_P1;PMS_P2;Temp;Humidity;BMP_temperature;BMP_pressure;BME280_temperature;BME280_humidity;BME280_pressure;Samples;Min_cycle;Max_cycle;Signal;HPM_P1;HPM_P2
2021/11/02 00:00:46;;;;;;;14.95;8.10;;;;;;;8.50;75.76;99931.41;4996057;28;20148;-57
2021/11/02 00:03:12;;;;;;;15.38;8.75;;;;;;;8.48;76.31;99930.53;4996374;28;20544;-54
2021/11/02 00:05:37;;;;;;;13.95;8.38;;;;;;;8.45;76.41;99931.41;4996168;28;20026;-55
2021/11/02 00:08:03;;;;;;;15.35;8.25;;;;;;;8.47;76.17;99924.50;4987467;28;20254;-55
2021/11/02 00:10:29;;;;;;;18.55;8.20;;;;;;;8.48;76.32;99926.19;4997979;28;20380;-55
2021/11/02 00:12:55;;;;;;;16.00;8.57;;;;;;;8.48;76.41;99926.19;4992393;28;20041;-54
2021/11/02 00:15:22;;;;;;;16.08;8.15;;;;;;;8.51;75.95;99928.84;4996792;28;20409;-56
2021/11/02 00:17:56;;;;;;;14.93;8.20;;;;;;;8.52;76.01;99925.38;4988987;28;20488;-57
2021/11/02 00:20:22;;;;;;;19.50;8.45;;;;;;;8.50;76.16;99915.84;4999662;28;20053;-53
2021/11/02 00:22:55;;;;;;;17.77;8.48;;;;;;;8.50;76.29;99916.69;4996547;28;20665;-55
2021/11/02 00:25:22;;;;;;;17.95;8.85;;;;;;;8.52;76.63;99922.78;4995165;28;20393;-55
2021/11/02 00:27:48;;;;;;;13.60;8.32;;;;;;;8.50;76.08;99926.22;4987300;28;20386;-56
2021/11/02 00:30:14;;;;;;;15.73;7.93;;;;;;;8.53;75.71;99924.53;4996505;28;20037;-56
2021/11/02 00:32:41;;;;;;;14.00;8.52;;;;;;;8.48;76.41;99920.13;4996262;28;20053;-57
2021/11/02 00:35:07;;;;;;;14.23;7.80;;;;;;;8.51;76.35;99918.44;4991526;28;20037;-56
2021/11/02 00:37:33;;;;;;;16.92;9.43;;;;;;;8.45;76.70;99913.22;4994795;28;20303;-55
2021/11/02 00:40:00;;;;;;;17.95;9.05;;;;;;;8.49;76.76;99911.50;4992721;28;20037;-53
2021/11/02 00:42:32;;;;;;;20.63;9.05;;;;;;;8.53;76.70;99914.16;4991034;28;20049;-56
2021/11/02 00:44:59;;;;;;;19.27;9.18;;;;;;;8.53;76.76;99910.66;4995807;28;20426;-57
2021/11/02 00:47:26;;;;;;;17.73;9.25;;;;;;;8.59;76.63;99915.91;4996755;28;20520;-56
2021/11/02 00:49:52;;;;;;;17.65;8.82;;;;;;;8.60;76.71;99915.03;4987101;28;20211;-56
2021/11/02 00:52:18;;;;;;;18.63;9.27;;;;;;;8.63;76.78;99915.06;4994892;28;20088;-57
2021/11/02 00:54:43;;;;;;;14.05;8.20;;;;;;;8.62;76.65;99920.22;4992260;28;20042;-57
2021/11/02 00:57:09;;;;;;;13.55;7.43;;;;;;;8.62;76.33;99917.63;4995378;28;20044;-56
2021/11/02 00:59:34;;;;;;;18.05;9.02;;;;;;;8.63;76.48;99919.38;4995128;28;20056;-56
2021/11/02 01:02:00;;;;;;;14.45;8.23;;;;;;;8.63;76.63;99911.59;4992553;28;20406;-57
2021/11/02 01:04:25;;;;;;;19.27;9.13;;;;;;;8.63;76.36;99922.84;4991856;28;20046;-56
2021/11/02 01:06:51;;;;;;;16.48;8.80;;;;;;;8.67;76.49;99916.78;4995164;28;20045;-55
2021/11/02 01:09:16;;;;;;;15.32;7.95;;;;;;;8.70;76.57;99910.75;5004850;28;20450;-57
2021/11/02 01:11:41;;;;;;;16.63;9.05;;;;;;;8.66;76.78;99911.63;4994363;28;20054;-54
2021/11/02 01:14:07;;;;;;;15.60;9.05;;;;;;;8.72;76.63;99920.28;4990757;28;20052;-58
2021/11/02 01:16:34;;;;;;;19.10;9.35;;;;;;;8.73;76.89;99908.16;4998069;28;20041;-56
2021/11/02 01:18:59;;;;;;;18.90;9.20;;;;;;;8.72;76.93;99902.09;4996503;28;20041;-56
2021/11/02 01:21:25;;;;;;;18.98;9.02;;;;;;;8.73;76.86;99900.38;4993172;28;20777;-56
2021/11/02 01:23:50;;;;;;;14.57;8.50;;;;;;;8.80;76.40;99903.00;4987471;28;20124;-52
2021/11/02 01:26:15;;;;;;;17.73;9.32;;;;;;;8.78;76.87;99904.72;4990457;28;20176;-54
2021/11/02 01:28:41;;;;;;;18.05;9.05;;;;;;;8.85;76.92;99911.69;4997173;28;20049;-57
2021/11/02 01:31:06;;;;;;;17.75;8.95;;;;;;;8.87;76.72;99907.38;4998331;28;20060;-57
2021/11/02 01:33:32;;;;;;;17.42;8.85;;;;;;;8.94;76.65;99910.88;5011219;28;20317;-57
2021/11/02 01:35:58;;;;;;;18.48;9.60;;;;;;;8.92;76.52;99910.00;4989839;28;20123;-57
2021/11/02 01:38:23;;;;;;;19.85;10.30;;;;;;;8.93;76.75;99910.00;4996128;28;20353;-56
2021/11/02 01:40:54;;;;;;;22.77;9.75;;;;;;;8.94;77.17;99909.16;4994910;28;20041;-58
2021/11/02 01:43:19;;;;;;;16.48;9.00;;;;;;;9.00;77.04;99905.72;4998932;28;20045;-58
2021/11/02 01:45:45;;;;;;;19.05;9.30;;;;;;;9.02;76.76;99903.13;4989502;28;20041;-56
2021/11/02 01:48:16;;;;;;;15.77;9.10;;;;;;;9.01;76.60;99899.66;4997843;28;20080;-56
2021/11/02 01:50:41;;;;;;;15.80;8.88;;;;;;;9.03;76.55;99902.25;5000816;28;20045;-57
2021/11/02 01:53:07;;;;;;;20.00;9.70;;;;;;;9.00;76.82;99908.31;4995403;28;20535;-55
2021/11/02 01:55:32;;;;;;;16.50;9.50;;;;;;;9.02;76.96;99905.72;4996329;28;20048;-57
2021/11/02 01:57:57;;;;;;;17.25;10.02;;;;;;;9.07;76.93;99904.00;4994222;28;20042;-56
2021/11/02 02:00:24;;;;;;;21.17;9.52;;;;;;;9.11;76.96;99908.34;5000590;28;20051;-57
2021/11/02 02:03:25;;;;;;;20.63;10.32;;;;;;;9.13;77.32;99907.50;4998990;28;20170;-57
2021/11/02 02:06:06;;;;;;;17.77;8.73;;;;;;;9.21;77.11;99897.97;4995224;28;20135;-57
2021/11/02 02:08:49;;;;;;;19.02;10.23;;;;;;;9.12;77.19;99905.75;4995995;28;20560;-55
2021/11/02 02:11:14;;;;;;;16.02;9.35;;;;;;;9.13;77.06;99904.03;5028355;28;20085;-57
2021/11/02 02:13:51;;;;;;;17.15;9.63;;;;;;;9.08;76.73;99901.44;4999569;28;21471;-56
2021/11/02 02:16:21;;;;;;;17.52;9.13;;;;;;;9.10;76.84;99902.28;4999627;28;20053;-56
2021/11/02 02:19:36;;;;;;;16.05;8.48;;;;;;;9.03;76.73;99899.63;4995927;28;20378;-58
2021/11/02 02:22:32;;;;;;;15.68;8.82;;;;;;;8.99;76.61;99897.91;4965231;28;20423;-53
2021/11/02 02:25:22;;;;;;;19.65;9.60;;;;;;;8.92;76.41;99902.19;4997451;28;20048;-56
2021/11/02 02:28:09;;;;;;;16.85;9.02;;;;;;;8.93;76.78;99906.53;4986162;28;20199;-57
2021/11/02 02:30:44;;;;;;;19.17;10.75;;;;;;;8.88;76.91;99897.84;4994715;28;20038;-56
2021/11/02 02:33:11;;;;;;;19.33;10.30;;;;;;;8.88;76.79;99896.13;4995734;28;20153;-57
2021/11/02 02:35:37;;;;;;;18.90;10.20;;;;;;;8.87;76.50;99897.00;4992310;28;20147;-54
2021/11/02 02:38:04;;;;;;;23.35;10.25;;;;;;;8.89;76.72;99892.69;4988041;28;20594;-57
2021/11/02 02:40:30;;;;;;;20.60;11.20;;;;;;;8.86;77.02;99891.78;4998679;28;20100;-53
2021/11/02 02:42:56;;;;;;;19.23;10.52;;;;;;;8.89;76.74;99889.22;4995278;28;20057;-56
2021/11/02 02:45:22;;;;;;;25.42;11.13;;;;;;;8.86;76.97;99887.44;4999509;28;20120;-58
2021/11/02 02:47:49;;;;;;;21.00;11.30;;;;;;;8.89;76.58;99884.88;4994230;28;20085;-60
2021/11/02 02:50:14;;;;;;;21.98;10.77;;;;;;;8.93;76.96;99876.22;4998725;28;20045;-57
2021/11/02 02:52:41;;;;;;;24.33;11.20;;;;;;;8.91;76.99;99879.66;4998897;28;20782;-56
2021/11/02 02:55:07;;;;;;;25.42;11.55;;;;;;;8.85;77.15;99871.84;4998864;28;20046;-56
2021/11/02 02:57:33;;;;;;;25.08;11.05;;;;;;;8.88;76.98;99871.88;4998445;28;20401;-56
2021/11/02 02:59:59;;;;;;;19.52;10.57;;;;;;;8.87;77.12;99870.13;4987257;28;20049;-57
2021/11/02 03:02:27;;;;;;;20.75;10.88;;;;;;;8.83;76.93;99869.25;4999480;28;20042;-55
2021/11/02 03:04:54;;;;;;;17.65;9.77;;;;;;;8.82;76.74;99872.72;5011873;28;20079;-57
2021/11/02 03:07:21;;;;;;;21.63;11.02;;;;;;;8.75;76.67;99870.94;4994911;28;20037;-57
2021/11/02 03:09:46;;;;;;;21.25;11.18;;;;;;;8.77;76.91;99860.56;4994369;28;20080;-60
2021/11/02 03:12:13;;;;;;;20.23;10.90;;;;;;;8.71;76.67;99865.72;4995110;28;20154;-57
2021/11/02 03:17:48;;;;;;;22.38;10.20;;;;;;;8.71;76.73;99863.13;4993785;28;20085;-57
2021/11/02 03:55:29;;;;;;;16.75;9.13;;;;;;;8.51;76.48;99884.69;5000914;28;20128;-53
2021/11/02 03:57:58;;;;;;;24.85;11.27;;;;;;;8.50;76.62;99898.53;4990809;28;21295;-57
2021/11/02 04:35:46;;;;;;;21.75;9.38;;;;;;;8.37;76.84;99912.28;4993456;28;20150;-54
2021/11/02 05:11:55;;;;;;;18.65;7.82;;;;;;;8.08;76.65;99913.75;5022193;28;20059;-59
2021/11/02 05:59:56;;;;;;;19.50;8.20;;;;;;;8.41;76.86;99928.78;4992497;28;20132;-57
2021/11/02 06:05:12;;;;;;;22.67;10.68;;;;;;;8.47;76.81;99923.63;4999370;28;20479;-56
2021/11/02 06:07:56;;;;;;;23.33;10.02;;;;;;;8.53;76.90;99936.66;5003867;28;20556;-56
2021/11/02 06:29:24;;;;;;;23.50;10.43;;;;;;;8.86;76.69;99930.75;4993036;28;20040;-57
2021/11/02 06:38:03;;;;;;;31.92;12.07;;;;;;;8.94;77.18;99935.16;4997273;28;20184;-58
2021/11/02 06:56:49;;;;;;;32.45;12.50;;;;;;;9.23;76.90;99937.00;4997518;28;20056;-58
2021/11/02 06:59:57;;;;;;;33.22;12.80;;;;;;;9.29;77.01;99932.69;5002099;28;20025;-58
2021/11/02 07:17:03;;;;;;;33.60;13.07;;;;;;;9.62;77.29;99937.13;5008963;28;20076;-58
2021/11/02 07:19:32;;;;;;;33.28;13.30;;;;;;;9.71;77.16;99938.88;4997342;28;20477;-58
2021/11/02 07:27:27;;;;;;;29.08;12.10;;;;;;;9.83;77.00;99941.50;5001686;28;20075;-56
2021/11/02 08:45:37;;;;;;;31.25;14.95;;;;;;;10.97;75.78;99962.31;4997329;28;20495;-57
2021/11/02 08:48:04;;;;;;;31.20;14.93;;;;;;;10.86;75.01;99962.31;4980611;28;20484;-57
2021/11/02 08:50:37;;;;;;;30.70;15.00;;;;;;;10.87;75.41;99950.16;4996971;28;20065;-56
2021/11/02 08:53:04;;;;;;;34.83;15.27;;;;;;;10.85;74.95;99954.53;4991524;28;20401;-57
2021/11/02 08:55:29;;;;;;;30.67;15.38;;;;;;;10.87;75.50;99956.22;4992702;28;20248;-58
2021/11/02 08:57:56;;;;;;;30.00;15.68;;;;;;;10.91;75.22;99957.13;4987514;28;20041;-57
2021/11/02 09:00:22;;;;;;;32.55;15.98;;;;;;;10.96;75.13;99957.97;4992955;28;20052;-57
2021/11/02 09:02:51;;;;;;;27.13;15.35;;;;;;;11.00;75.00;99954.47;5013003;28;20440;-58
2021/11/02 09:05:36;;;;;;;31.00;15.55;;;;;;;11.04;75.00;99955.34;4992486;28;20052;-58
2021/11/02 09:08:02;;;;;;;27.85;15.50;;;;;;;11.10;75.16;99960.53;4984859;28;20346;-58
2021/11/02 09:10:29;;;;;;;29.63;15.93;;;;;;;11.08;74.92;99957.94;5010233;28;20548;-58
2021/11/02 09:12:56;;;;;;;30.45;16.65;;;;;;;11.14;75.14;99957.03;4992194;28;20042;-58
2021/11/02 09:15:27;;;;;;;33.63;16.55;;;;;;;11.21;75.41;99958.75;4995646;28;20041;-55
2021/11/02 09:17:53;;;;;;;36.05;16.95;;;;;;;11.21;75.31;99961.34;4987284;28;20160;-59
2021/11/02 09:20:22;;;;;;;33.35;16.65;;;;;;;11.15;75.06;99966.59;4989643;28;20400;-58
2021/11/02 09:22:47;;;;;;;34.47;17.20;;;;;;;11.18;74.91;99963.97;4993395;28;20444;-56
2021/11/02 09:25:14;;;;;;;29.83;16.67;;;;;;;11.20;74.89;99972.66;4998795;28;20247;-57
2021/11/02 09:27:42;;;;;;;32.70;17.10;;;;;;;11.24;74.48;99969.16;4996671;28;20068;-58
2021/11/02 09:30:09;;;;;;;30.77;16.80;;;;;;;11.23;74.72;99967.41;4993141;28;20117;-65
2021/11/02 09:32:36;;;;;;;32.70;17.30;;;;;;;11.29;75.05;99968.25;4993291;28;20042;-59
2021/11/02 09:35:03;;;;;;;33.70;17.75;;;;;;;11.23;74.44;99965.69;4991627;28;20646;-59
2021/11/02 09:37:34;;;;;;;33.72;16.85;;;;;;;11.19;74.76;99970.94;5000068;28;20604;-58
2021/11/02 09:40:11;;;;;;;30.58;17.30;;;;;;;11.15;74.59;99969.22;5008434;28;20041;-55
2021/11/02 09:42:53;;;;;;;29.98;17.17;;;;;;;11.15;74.70;99969.22;4998691;28;20536;-56
2021/11/02 09:45:22;;;;;;;33.13;17.60;;;;;;;11.13;75.06;99966.59;4998178;28;20107;-57
2021/11/02 09:48:12;;;;;;;30.88;18.02;;;;;;;11.15;74.73;99964.00;4994970;28;20132;-60
2021/11/02 09:50:38;;;;;;;36.72;17.42;;;;;;;11.17;74.70;99965.69;5004275;28;20049;-58
2021/11/02 09:53:22;;;;;;;34.42;18.13;;;;;;;11.15;74.79;99962.25;4999361;28;20100;-59
2021/11/02 09:56:01;;;;;;;;;;;;;;;11.09;75.03;99964.00;4995895;28;20053;-57
2021/11/02 09:59:15;;;;;;;32.50;17.33;;;;;;;11.10;74.98;99965.75;4998488;28;20256;-56
2021/11/02 10:02:03;;;;;;;36.20;17.40;;;;;;;11.14;75.07;99962.25;4995968;28;20501;-59
2021/11/02 10:05:11;;;;;;;31.40;17.65;;;;;;;11.17;74.97;99963.09;4998146;28;20053;-57
2021/11/02 10:07:45;;;;;;;35.08;17.90;;;;;;;11.20;75.07;99965.72;4958491;28;20046;-57
2021/11/02 10:10:12;;;;;;;32.33;18.33;;;;;;;11.24;74.93;99963.94;4995111;28;20038;-58
2021/11/02 10:12:53;;;;;;;37.42;17.88;;;;;;;11.24;74.93;99961.34;4993737;28;20068;-57
2021/11/02 10:15:27;;;;;;;31.02;18.05;;;;;;;11.26;74.71;99960.47;4993196;28;20057;-58
2021/11/02 10:18:18;;;;;;;34.60;17.42;;;;;;;11.26;74.53;99965.69;4990657;28;20049;-59
2021/11/02 10:20:59;;;;;;;32.05;17.80;;;;;;;11.31;74.93;99961.31;5010482;28;20095;-60
2021/11/02 10:24:06;;;;;;;29.20;16.88;;;;;;;11.35;75.17;99962.16;4996937;28;20765;-57
2021/11/02 10:27:09;;;;;;;33.42;17.15;;;;;;;11.56;75.18;99964.69;4963270;28;20153;-57
2021/11/02 10:30:00;;;;;;;27.58;16.63;;;;;;;11.65;74.44;99967.22;4954362;28;20494;-56
2021/11/02 10:32:28;;;;;;;30.45;16.55;;;;;;;11.69;74.80;99962.88;5021911;28;20060;-57
2021/11/02 10:35:08;;;;;;;26.98;16.02;;;;;;;11.67;73.92;99964.59;4993383;28;20026;-59
2021/11/02 10:38:02;;;;;;;26.80;15.35;;;;;;;11.37;74.73;99957.81;5005360;28;20133;-58
2021/11/02 10:40:36;;;;;;;25.83;15.20;;;;;;;11.55;74.26;99959.44;4998877;28;20053;-56
2021/11/02 10:43:03;;;;;;;;;;;;;;;11.42;74.05;99960.38;4994956;28;20234;-59
2021/11/02 10:45:30;;;;;;;23.35;14.77;;;;;;;11.48;73.91;99958.63;5023156;28;19920;-58
2021/11/02 10:48:09;;;;;;;24.42;15.10;;;;;;;11.45;74.17;99966.47;4988989;28;20309;-58
2021/11/02 10:50:37;;;;;;;25.77;15.13;;;;;;;11.48;74.30;99966.44;4986117;28;20187;-56
2021/11/02 10:53:04;;;;;;;22.98;14.68;;;;;;;11.52;74.42;99959.50;4991894;28;20233;-58
2021/11/02 10:55:36;;;;;;;23.98;14.30;;;;;;;11.53;74.02;99969.91;4997782;28;20053;-56
2021/11/02 10:58:32;;;;;;;23.52;14.07;;;;;;;11.58;74.44;99970.75;4987079;28;20230;-58
2021/11/02 11:01:04;;;;;;;23.10;14.05;;;;;;;11.66;74.35;99962.88;4993121;28;20050;-59
2021/11/02 11:03:30;;;;;;;23.95;14.65;;;;;;;11.74;74.58;99966.34;5011914;28;20042;-58
2021/11/02 11:05:59;;;;;;;24.08;14.73;;;;;;;11.80;74.72;99961.09;4983919;28;20468;-58
2021/11/02 11:08:31;;;;;;;22.83;14.88;;;;;;;11.85;74.35;99968.88;4995289;28;20118;-57
2021/11/02 11:11:00;;;;;;;25.23;15.45;;;;;;;11.96;74.58;99954.88;4995442;28;20037;-57
2021/11/02 11:13:28;;;;;;;24.40;15.02;;;;;;;12.21;74.74;99960.78;4989765;28;20049;-57
2021/11/02 11:16:13;;;;;;;21.52;14.63;;;;;;;12.38;74.03;99958.06;5019578;28;20381;-58
2021/11/02 11:18:52;;;;;;;22.13;14.18;;;;;;;12.48;73.02;99957.09;4995406;28;20045;-57
2021/11/02 11:21:18;;;;;;;21.92;14.23;;;;;;;12.56;72.62;99957.91;4994000;28;20041;-57
2021/11/02 11:23:49;;;;;;;23.25;14.63;;;;;;;12.66;71.92;99953.44;4991299;28;20092;-57
2021/11/02 11:26:14;;;;;;;22.73;15.10;;;;;;;12.72;71.75;99945.53;4997047;28;20060;-57
2021/11/02 11:28:40;;;;;;;20.23;14.27;;;;;;;12.73;71.52;99949.88;4998432;28;20485;-59
2021/11/02 11:31:07;;;;;;;19.92;14.07;;;;;;;12.70;71.66;99950.78;4993825;28;20042;-59
2021/11/02 11:33:33;;;;;;;20.27;13.95;;;;;;;12.64;71.36;99949.97;4994158;28;20046;-58
2021/11/02 11:36:06;;;;;;;21.27;14.65;;;;;;;12.56;71.59;99950.06;4981099;28;20048;-58
2021/11/02 11:38:40;;;;;;;18.13;13.70;;;;;;;12.55;71.95;99943.97;4992271;28;20139;-58
2021/11/02 11:41:08;;;;;;;19.05;13.70;;;;;;;12.41;71.30;99945.81;5024858;28;20405;-59
2021/11/02 11:43:33;;;;;;;19.83;13.85;;;;;;;12.40;71.60;99948.44;5000352;28;20141;-59
2021/11/02 11:46:02;;;;;;;24.23;14.05;;;;;;;12.33;72.00;99942.41;4988062;28;20061;-57
2021/11/02 11:48:29;;;;;;;20.38;13.70;;;;;;;12.31;72.52;99943.31;5000291;28;20038;-57
2021/11/02 11:50:57;;;;;;;18.08;13.52;;;;;;;12.30;71.85;99942.44;4992712;28;20045;-57
2021/11/02 11:53:24;;;;;;;18.08;13.20;;;;;;;12.22;71.49;99944.25;4984505;28;20495;-58
2021/11/02 11:56:08;;;;;;;20.48;12.98;;;;;;;12.17;71.41;99941.66;4986393;28;20063;-58
2021/11/02 11:58:35;;;;;;;19.80;13.43;;;;;;;12.15;71.83;99939.94;5006873;28;20048;-58
2021/11/02 12:01:18;;;;;;;21.83;14.05;;;;;;;12.06;72.47;99946.13;4990464;28;20049;-57
2021/11/02 12:04:08;;;;;;;20.67;13.63;;;;;;;11.97;72.40;99943.56;4995808;28;20656;-58
2021/11/02 12:06:38;;;;;;;18.92;12.50;;;;;;;11.89;72.91;99942.75;4985276;28;20567;-59
2021/11/02 12:09:14;;;;;;;19.50;12.82;;;;;;;11.90;72.72;99943.59;4992624;28;20056;-57
2021/11/02 12:11:43;;;;;;;18.63;12.48;;;;;;;11.81;73.11;99935.84;4998907;28;20084;-57
2021/11/02 12:14:10;;;;;;;18.65;11.88;;;;;;;11.84;72.90;99941.91;4989049;28;20181;-59
2021/11/02 12:16:40;;;;;;;18.13;11.98;;;;;;;11.76;72.95;99944.59;4992962;28;20140;-58
2021/11/02 12:19:35;;;;;;;16.13;11.48;;;;;;;11.76;73.10;99944.59;4985194;28;20469;-55
2021/11/02 12:22:16;;;;;;;17.60;11.82;;;;;;;11.76;73.33;99943.72;4991317;28;20505;-57
2021/11/02 12:24:42;;;;;;;16.50;11.50;;;;;;;11.78;73.28;99939.34;4991789;28;20499;-58
2021/11/02 12:27:12;;;;;;;14.95;10.00;;;;;;;11.78;73.02;99939.34;4991734;28;20044;-58
2021/11/02 12:29:38;;;;;;;13.48;9.35;;;;;;;11.85;72.86;99948.00;4996407;28;20243;-59
2021/11/02 12:32:05;;;;;;;10.45;7.65;;;;;;;11.89;73.16;99948.00;4988076;28;20472;-58
2021/11/02 12:34:46;;;;;;;9.68;7.10;;;;;;;11.93;72.86;99947.09;4996995;28;20045;-58
2021/11/02 12:37:13;;;;;;;7.80;5.75;;;;;;;11.97;72.07;99947.91;4998380;28;20050;-59
2021/11/02 12:39:39;;;;;;;7.28;5.53;;;;;;;12.02;71.80;99943.50;4993827;28;20835;-59
2021/11/02 12:42:05;;;;;;;7.28;5.30;;;;;;;12.18;71.91;99945.16;4983600;28;20260;-59
2021/11/02 12:44:35;;;;;;;7.50;5.30;;;;;;;12.29;72.02;99942.44;4994086;28;20410;-58
2021/11/02 12:47:07;;;;;;;7.10;5.35;;;;;;;12.35;72.15;99945.88;4994794;28;20040;-58
2021/11/02 12:49:49;;;;;;;6.63;4.70;;;;;;;12.44;70.98;99939.72;4988841;28;20482;-58
2021/11/02 12:52:15;;;;;;;5.55;4.03;;;;;;;12.55;70.41;99943.97;5014180;28;20033;-59
2021/11/02 12:54:42;;;;;;;4.90;4.03;;;;;;;12.78;70.61;99942.84;4997605;28;20049;-58
2021/11/02 12:57:12;;;;;;;6.03;3.88;;;;;;;12.92;70.14;99938.34;4995495;28;20042;-58
2021/11/02 12:59:43;;;;;;;7.10;4.20;;;;;;;12.99;69.61;99942.63;4988303;28;20129;-58
2021/11/02 13:02:34;;;;;;;5.63;3.83;;;;;;;13.04;69.83;99947.81;4993421;28;20054;-58
2021/11/02 13:05:03;;;;;;;5.57;3.42;;;;;;;13.02;68.66;99940.84;4996030;28;20581;-59
2021/11/02 13:07:35;;;;;;;5.18;3.20;;;;;;;13.09;69.27;99944.25;4995414;28;20030;-58
2021/11/02 13:10:02;;;;;;;4.00;2.55;;;;;;;13.17;68.84;99946.81;4988440;28;20340;-56
2021/11/02 13:12:28;;;;;;;4.45;2.78;;;;;;;13.20;69.17;99946.78;4999356;28;20049;-58
2021/11/02 13:15:01;;;;;;;4.80;2.33;;;;;;;13.16;68.35;99950.31;4988609;28;20045;-60
2021/11/02 13:17:36;;;;;;;4.97;2.10;;;;;;;13.07;68.63;99951.25;4995968;28;20132;-60
2021/11/02 13:20:03;;;;;;;3.25;1.80;;;;;;;12.98;67.90;99960.09;4992584;28;20434;-59
2021/11/02 13:22:29;;;;;;;2.55;1.70;;;;;;;13.03;67.99;99954.78;4996982;28;20049;-57
2021/11/02 13:24:58;;;;;;;3.40;1.67;;;;;;;12.96;67.63;99956.59;4995735;28;20448;-58
2021/11/02 13:27:36;;;;;;;2.30;1.35;;;;;;;13.01;67.24;99953.94;4986855;28;20807;-58
2021/11/02 13:30:28;;;;;;;2.55;1.15;;;;;;;12.98;66.90;99956.59;4993691;28;21546;-59
2021/11/02 13:32:57;;;;;;;1.67;1.10;;;;;;;12.89;67.11;99949.69;4998605;28;20052;-57
2021/11/02 13:35:48;;;;;;;3.17;1.30;;;;;;;12.79;66.62;99957.66;4999357;28;20046;-57
2021/11/02 13:38:40;;;;;;;3.17;0.90;;;;;;;12.82;67.07;99961.09;4993740;28;20046;-58
2021/11/02 13:41:11;;;;;;;2.95;1.00;;;;;;;12.96;68.21;99966.19;4997434;28;20521;-58
2021/11/02 13:43:42;;;;;;;1.85;1.05;;;;;;;13.00;69.28;99962.66;5002878;28;20557;-58
2021/11/02 13:46:09;;;;;;;2.58;1.10;;;;;;;13.04;68.14;99964.38;5007325;28;20325;-59
2021/11/02 13:48:35;;;;;;;3.25;0.80;;;;;;;13.10;69.11;99966.06;4999382;28;20323;-55
2021/11/02 13:51:03;;;;;;;1.73;0.75;;;;;;;13.17;68.96;99967.75;4994700;28;20296;-59
2021/11/02 13:53:32;;;;;;;1.90;0.70;;;;;;;13.15;66.97;99969.50;5009326;28;20068;-58
2021/11/02 13:55:58;;;;;;;2.00;0.60;;;;;;;13.08;68.17;99975.66;4984952;28;20045;-59
2021/11/02 13:58:23;;;;;;;1.17;0.70;;;;;;;13.01;67.61;99980.09;4995568;28;20450;-60
2021/11/02 14:00:49;;;;;;;2.30;0.73;;;;;;;13.08;67.07;99978.28;5000300;28;20058;-58
2021/11/02 14:03:20;;;;;;;2.85;0.63;;;;;;;13.01;67.05;99983.59;5003600;28;20174;-59
2021/11/02 14:05:45;;;;;;;3.67;0.60;;;;;;;12.96;68.22;99977.53;4999854;28;20077;-57
2021/11/02 14:08:12;;;;;;;1.85;0.63;;;;;;;12.91;68.77;99981.94;4994897;28;20049;-58
2021/11/02 14:10:37;;;;;;;2.60;0.80;;;;;;;12.91;69.40;99979.34;4994938;28;20313;-58
2021/11/02 14:13:03;;;;;;;3.22;0.90;;;;;;;12.91;68.81;99976.72;4983328;28;20042;-57
2021/11/02 14:15:29;;;;;;;4.32;0.70;;;;;;;12.94;68.82;99979.28;4984372;28;20041;-57
2021/11/02 14:17:58;;;;;;;2.78;0.80;;;;;;;12.92;68.66;99981.06;4986623;28;20324;-58
2021/11/02 14:20:32;;;;;;;2.33;0.80;;;;;;;12.92;68.56;99980.22;5000200;28;20335;-57
2021/11/02 14:22:57;;;;;;;2.72;0.80;;;;;;;12.92;68.34;99974.97;4991006;28;20381;-58
2021/11/02 14:25:35;;;;;;;3.15;0.73;;;;;;;12.96;69.17;99979.28;4992503;28;20505;-58
2021/11/02 14:28:01;;;;;;;1.50;0.80;;;;;;;12.93;69.44;99985.41;5019382;28;20418;-58
2021/11/02 14:30:39;;;;;;;2.38;0.80;;;;;;;13.00;69.08;99992.31;4995791;28;20057;-58
2021/11/02 14:33:09;;;;;;;1.33;0.80;;;;;;;12.99;67.50;99990.56;5026430;28;20049;-58
2021/11/02 14:35:39;;;;;;;4.35;0.90;;;;;;;13.02;67.98;99992.31;4998486;28;20041;-58
2021/11/02 14:38:09;;;;;;;2.22;0.80;;;;;;;13.06;67.89;99995.75;4988927;28;20218;-59
2021/11/02 14:40:39;;;;;;;3.13;1.00;;;;;;;13.00;67.30;100004.53;4987416;28;20136;-57
2021/11/02 14:43:22;;;;;;;2.00;0.90;;;;;;;12.94;67.79;99999.34;5026634;28;20486;-56
2021/11/02 14:45:53;;;;;;;4.93;1.10;;;;;;;12.94;67.07;100001.97;4989498;28;20038;-58
2021/11/02 14:48:36;;;;;;;1.83;0.90;;;;;;;12.88;67.38;100008.13;4995151;28;20104;-59
2021/11/02 14:51:17;;;;;;;3.78;1.00;;;;;;;12.83;69.57;100009.06;4998258;28;20059;-56
2021/11/02 14:53:44;;;;;;;6.10;0.98;;;;;;;12.74;69.81;100009.16;4993715;28;20052;-57
2021/11/02 14:56:15;;;;;;;3.38;1.00;;;;;;;12.68;70.11;100004.00;4997583;28;20207;-58
2021/11/02 14:58:41;;;;;;;2.22;1.00;;;;;;;12.68;69.83;100014.44;4990150;28;20092;-57
2021/11/02 15:01:24;;;;;;;2.78;0.90;;;;;;;12.59;70.40;100013.63;4999170;28;20045;-58
2021/11/02 15:04:04;;;;;;;1.53;0.80;;;;;;;12.58;70.36;100021.47;4990861;28;20582;-58
2021/11/02 15:06:35;;;;;;;3.47;0.75;;;;;;;12.51;69.36;100019.78;4995731;28;20378;-58
2021/11/02 15:09:06;;;;;;;3.55;0.80;;;;;;;12.46;70.63;100022.47;4994423;28;20037;-58
2021/11/02 15:11:31;;;;;;;2.50;0.70;;;;;;;12.41;70.47;100024.25;4993468;28;20060;-58
2021/11/02 15:14:03;;;;;;;2.03;0.70;;;;;;;12.41;70.70;100033.81;4989224;28;20041;-59
2021/11/02 15:16:28;;;;;;;2.25;1.00;;;;;;;12.38;70.95;100026.03;4993546;28;20588;-58
2021/11/02 15:19:03;;;;;;;4.70;0.80;;;;;;;12.38;71.05;100023.41;4997013;28;20041;-56
2021/11/02 15:21:34;;;;;;;3.15;0.70;;;;;;;12.35;70.36;100026.91;4997094;28;20042;-56
2021/11/02 15:24:07;;;;;;;2.38;0.70;;;;;;;12.32;70.96;100032.13;4988427;28;20365;-59
2021/11/02 15:26:52;;;;;;;1.50;0.80;;;;;;;12.23;71.78;100023.50;5000071;28;20214;-58
2021/11/02 15:29:20;;;;;;;1.92;0.80;;;;;;;12.15;72.06;100024.41;4994207;28;20069;-58
2021/11/02 15:32:04;;;;;;;2.67;0.90;;;;;;;12.09;72.52;100034.03;4990645;28;20042;-58
2021/11/02 15:34:46;;;;;;;1.52;0.88;;;;;;;12.04;72.49;100023.63;4995514;28;20116;-59
2021/11/02 15:37:23;;;;;;;4.40;0.90;;;;;;;12.01;72.55;100023.66;4993448;28;20394;-57
2021/11/02 15:39:55;;;;;;;1.42;0.93;;;;;;;11.95;73.01;100028.91;4988369;28;20053;-59
2021/11/02 15:42:23;;;;;;;2.08;0.90;;;;;;;11.97;73.56;100024.53;4992674;28;20210;-59
2021/11/02 15:44:54;;;;;;;2.13;0.90;;;;;;;12.03;73.50;100028.84;4995858;28;20092;-56
2021/11/02 15:47:19;;;;;;;2.10;0.98;;;;;;;12.01;72.63;100030.63;5026511;28;20846;-57
2021/11/02 15:49:59;;;;;;;1.60;0.90;;;;;;;12.07;72.55;100030.59;4990939;28;20034;-58
2021/11/02 15:52:26;;;;;;;2.72;1.00;;;;;;;12.07;72.25;100038.44;4989852;28;20196;-58
2021/11/02 15:54:52;;;;;;;1.98;0.90;;;;;;;12.08;72.16;100046.22;5010469;28;20038;-56
2021/11/02 15:57:17;;;;;;;2.55;1.10;;;;;;;12.05;71.01;100043.66;4995353;28;20546;-57
2021/11/02 15:59:43;;;;;;;2.97;1.20;;;;;;;11.99;70.83;100042.81;5014131;28;20521;-60
2021/11/02 16:02:08;;;;;;;1.77;1.17;;;;;;;11.86;71.01;100048.97;5026047;28;20036;-59
2021/11/02 16:04:34;;;;;;;3.10;1.30;;;;;;;11.82;71.88;100047.28;4997466;28;20050;-58
2021/11/02 16:07:09;;;;;;;4.43;1.30;;;;;;;11.76;71.74;100058.63;4996669;28;20111;-58
2021/11/02 16:09:48;;;;;;;2.85;1.50;;;;;;;11.75;72.27;100049.91;4994576;28;20121;-57
2021/11/02 16:12:20;;;;;;;2.78;1.45;;;;;;;11.71;71.60;100050.75;4993874;28;20038;-58
2021/11/02 16:14:58;;;;;;;4.25;1.60;;;;;;;11.73;71.36;100053.34;4988911;28;20052;-56
2021/11/02 16:17:26;;;;;;;4.47;1.80;;;;;;;11.71;71.63;100048.13;4996454;28;20490;-58
2021/11/02 16:19:53;;;;;;;5.15;1.70;;;;;;;11.69;72.27;100052.50;4983874;28;20091;-58
2021/11/02 16:22:20;;;;;;;3.78;1.90;;;;;;;11.67;72.74;100043.81;4995198;28;20049;-60
2021/11/02 16:24:45;;;;;;;2.38;1.77;;;;;;;11.66;71.99;100055.13;4995560;28;20107;-58
2021/11/02 16:27:23;;;;;;;4.30;2.00;;;;;;;11.63;70.77;100049.06;5000428;28;20441;-57
2021/11/02 16:29:49;;;;;;;3.00;1.73;;;;;;;11.59;69.99;100055.16;4993863;28;20041;-58
2021/11/02 16:32:26;;;;;;;2.65;1.20;;;;;;;11.56;68.33;100057.78;4986964;28;20637;-54
2021/11/02 16:34:52;;;;;;;1.23;0.90;;;;;;;11.48;66.30;100049.09;5001244;28;20038;-60
2021/11/02 16:37:29;;;;;;;4.00;0.70;;;;;;;11.48;64.67;100056.94;4991369;28;20064;-55
2021/11/02 16:40:18;;;;;;;1.30;0.70;;;;;;;11.54;64.95;100054.28;4991156;28;20473;-58